Time;durP1;ratioP1;P1;durP2;ratioP2;P2;SDS_P1;SDS_P2;PMS_P1;PMS_P2;Temp;Humidity;BMP_temperature;BMP_pressure;BME280_temperature;BME280_humidity;BME280_pressure;Samples;Min_cycle;Max_cycle;Signal;HPM_P1;HPM_P2
2023/05/30 00:04:35;;;;;;;7.78;4.30;;;;;;;9.70;100.00;102732.13;10317546;28;20046;-81
2023/05/30 00:09:36;;;;;;;12.70;5.80;;;;;;;9.69;100.00;102731.28;10318643;28;20042;-78
2023/05/30 00:14:37;;;;;;;20.13;5.13;;;;;;;9.64;100.00;102743.56;10298723;28;20154;-81
2023/05/30 00:19:37;;;;;;;12.68;4.80;;;;;;;9.64;100.00;102754.38;10298974;28;20030;-80
2023/05/30 00:24:38;;;;;;;11.00;5.18;;;;;;;9.63;100.00;102766.19;10312427;28;20053;-81
2023/05/30 00:29:38;;;;;;;15.00;5.47;;;;;;;9.57;100.00;102759.50;10318109;28;20038;-82
2023/05/30 00:34:39;;;;;;;6.22;3.50;;;;;;;9.53;100.00;102768.91;10299722;28;20031;-83
2023/05/30 00:39:39;;;;;;;10.05;4.93;;;;;;;9.50;100.00;102763.78;10302201;28;20050;-80
2023/05/30 00:44:40;;;;;;;16.48;6.63;;;;;;;9.47;100.00;102773.03;10300827;28;20390;-79
2023/05/30 00:49:40;;;;;;;11.57;3.65;;;;;;;9.47;100.00;102774.88;10298611;28;20153;-81
2023/05/30 00:54:42;;;;;;;15.68;4.88;;;;;;;9.46;100.00;102773.19;10295278;28;20031;-83
2023/05/30 00:59:43;;;;;;;8.70;3.83;;;;;;;9.41;100.00;102775.47;10297582;28;20034;-83
2023/05/30 01:04:43;;;;;;;14.63;5.25;;;;;;;9.44;100.00;102769.75;10278144;28;20041;-81
2023/05/30 01:09:44;;;;;;;16.65;5.10;;;;;;;9.38;100.00;102776.63;10291649;28;20068;-79
2023/05/30 01:14:52;;;;;;;7.57;4.63;;;;;;;9.36;100.00;102773.22;10315361;28;20086;-78
2023/05/30 01:20:09;;;;;;;16.88;5.45;;;;;;;9.34;100.00;102769.78;10325603;28;20090;-77
2023/05/30 01:25:42;;;;;;;13.25;6.05;;;;;;;9.29;100.00;102767.53;10294582;28;20058;-82
2023/05/30 01:30:46;;;;;;;21.00;5.85;;;;;;;9.31;100.00;102775.47;10247254;28;20063;-80
2023/05/30 01:35:46;;;;;;;9.82;4.32;;;;;;;9.28;100.00;102764.94;10295260;28;20031;-83
2023/05/30 01:40:51;;;;;;;20.00;5.93;;;;;;;9.27;100.00;102755.13;10281004;28;20046;-81
2023/05/30 01:46:15;;;;;;;9.50;4.85;;;;;;;9.23;100.00;102767.25;10279463;28;20030;-83
2023/05/30 01:51:21;;;;;;;15.52;6.00;;;;;;;9.16;100.00;102764.25;10310331;28;20031;-82
2023/05/30 01:56:22;;;;;;;17.58;6.35;;;;;;;9.15;100.00;102772.50;10282454;28;20045;-80
2023/05/30 02:01:24;;;;;;;8.48;4.93;;;;;;;9.13;100.00;102772.66;10307326;28;20057;-81
2023/05/30 02:06:25;;;;;;;19.17;5.30;;;;;;;9.14;100.00;102773.50;10281431;28;20031;-82
2023/05/30 02:11:25;;;;;;;10.65;4.20;;;;;;;9.11;100.00;102773.78;10303888;28;20064;-77
2023/05/30 02:16:26;;;;;;;13.43;5.47;;;;;;;9.07;100.00;102774.06;10319492;28;20063;-81
2023/05/30 02:21:26;;;;;;;13.23;4.90;;;;;;;9.02;100.00;102775.47;10332442;28;20474;-83
2023/05/30 02:26:27;;;;;;;6.43;4.10;;;;;;;8.96;100.00;102782.28;10326750;28;20042;-80
2023/05/30 02:31:27;;;;;;;9.07;5.60;;;;;;;8.91;100.00;102783.72;10302268;28;20417;-83
2023/05/30 02:36:27;;;;;;;11.48;5.18;;;;;;;8.84;99.46;102784.28;10327422;28;20066;-80
2023/05/30 02:41:28;;;;;;;15.52;6.15;;;;;;;8.81;99.77;102783.72;10334649;28;20035;-79
2023/05/30 02:46:28;;;;;;;17.52;5.13;;;;;;;8.86;100.00;102786.84;10334767;28;20065;-80
2023/05/30 02:51:29;;;;;;;20.30;6.35;;;;;;;9.15;100.00;102784.16;10335532;28;20035;-77
2023/05/30 02:56:30;;;;;;;22.23;6.90;;;;;;;9.39;100.00;102789.13;10318224;28;20066;-79
2023/05/30 03:01:30;;;;;;;9.38;4.65;;;;;;;9.66;100.00;102782.97;10306846;28;20470;-81
2023/05/30 03:06:31;;;;;;;11.18;5.57;;;;;;;9.85;100.00;102779.38;10344944;28;20034;-80
2023/05/30 03:11:32;;;;;;;17.98;5.72;;;;;;;10.06;100.00;102781.88;10344173;28;20019;-78
2023/05/30 03:16:32;;;;;;;6.32;4.13;;;;;;;10.20;100.00;102784.09;10344624;28;20045;-76
2023/05/30 03:21:34;;;;;;;5.55;4.43;;;;;;;10.34;100.00;102796.34;10329190;28;20481;-82
2023/05/30 03:26:34;;;;;;;16.08;6.22;;;;;;;10.42;100.00;102792.88;10318811;28;20058;-81
2023/05/30 03:31:35;;;;;;;5.50;3.95;;;;;;;10.46;100.00;102784.31;10318649;28;20039;-82
2023/05/30 03:36:35;;;;;;;7.28;4.45;;;;;;;10.51;100.00;102777.56;10315016;28;20089;-81
2023/05/30 03:41:36;;;;;;;6.72;3.47;;;;;;;10.55;100.00;102782.53;10311489;28;20039;-81
2023/05/30 03:46:36;;;;;;;15.88;5.32;;;;;;;10.61;100.00;102792.75;10310963;28;20031;-81
2023/05/30 03:51:37;;;;;;;11.32;4.68;;;;;;;10.71;100.00;102792.69;10310508;28;20089;-81
2023/05/30 03:56:37;;;;;;;7.00;4.60;;;;;;;10.79;100.00;102794.66;10315247;28;20062;-79
2023/05/30 04:01:37;;;;;;;8.65;4.95;;;;;;;10.92;100.00;102801.41;10309800;28;20039;-81
2023/05/30 04:06:38;;;;;;;5.10;4.60;;;;;;;10.98;100.00;102793.69;10294848;28;20035;-82
2023/05/30 04:11:38;;;;;;;9.38;4.65;;;;;;;11.01;100.00;102805.06;10312395;28;20110;-82
2023/05/30 04:16:39;;;;;;;5.53;4.45;;;;;;;11.11;100.00;102805.00;10312648;28;20062;-82
2023/05/30 04:21:39;;;;;;;7.13;5.95;;;;;;;11.07;100.00;102799.03;10300739;28;20046;-81
2023/05/30 04:26:40;;;;;;;12.93;5.00;;;;;;;11.14;100.00;102810.97;10295659;28;20035;-79
2023/05/30 04:31:43;;;;;;;7.32;4.63;;;;;;;11.15;100.00;102817.22;10341888;28;20021;-79
2023/05/30 04:36:44;;;;;;;8.50;5.50;;;;;;;11.24;100.00;102810.88;10324815;28;20022;-78
2023/05/30 04:41:44;;;;;;;4.95;4.38;;;;;;;11.32;100.00;102820.94;10317462;28;20038;-81
2023/05/30 04:46:46;;;;;;;3.55;3.25;;;;;;;11.38;100.00;102814.91;10311881;28;20039;-84
2023/05/30 04:51:46;;;;;;;11.88;5.28;;;;;;;11.49;100.00;102824.69;10321133;28;20031;-80
2023/05/30 04:56:47;;;;;;;7.32;3.97;;;;;;;11.56;100.00;102825.75;10302347;28;20042;-82
2023/05/30 05:01:48;;;;;;;11.52;5.10;;;;;;;11.54;100.00;102820.47;10306595;28;20031;-82
2023/05/30 05:06:50;;;;;;;13.82;4.50;;;;;;;11.61;100.00;102827.00;10301721;28;20034;-79
2023/05/30 05:11:50;;;;;;;11.00;5.55;;;;;;;11.73;99.87;102829.44;10312057;28;20039;-82
2023/05/30 05:16:51;;;;;;;11.57;5.18;;;;;;;11.71;100.00;102820.59;10302882;28;20054;-84
2023/05/30 05:21:51;;;;;;;8.73;4.88;;;;;;;11.88;100.00;102813.47;10255646;28;20047;-80
2023/05/30 05:26:51;;;;;;;16.55;5.03;;;;;;;11.91;100.00;102826.72;10299705;28;20074;-81
2023/05/30 05:31:52;;;;;;;15.90;6.28;;;;;;;12.05;98.65;102826.13;10301280;28;20031;-76
2023/05/30 05:36:52;;;;;;;5.63;5.10;;;;;;;12.16;97.98;102820.44;10317615;28;20043;-81
2023/05/30 05:41:52;;;;;;;7.80;4.38;;;;;;;12.17;97.64;102830.28;10323089;28;20042;-80
2023/05/30 05:46:53;;;;;;;10.25;6.25;;;;;;;12.30;97.42;102827.13;10295439;28;20043;-81
2023/05/30 05:51:53;;;;;;;15.68;5.03;;;;;;;12.31;96.43;102832.38;10293763;28;20039;-83
2023/05/30 05:56:54;;;;;;;11.00;4.72;;;;;;;12.47;95.73;102837.03;10316547;28;20069;-83
2023/05/30 06:01:54;;;;;;;13.88;6.30;;;;;;;12.75;94.64;102826.81;10314647;28;20034;-80
2023/05/30 06:06:55;;;;;;;15.15;4.95;;;;;;;13.06;93.90;102830.81;10298764;28;20031;-81
2023/05/30 06:11:55;;;;;;;15.63;6.20;;;;;;;13.28;92.59;102832.06;10299492;28;20105;-82
2023/05/30 06:16:55;;;;;;;5.15;4.25;;;;;;;13.28;90.35;102843.81;10303597;28;20063;-82
2023/05/30 06:21:56;;;;;;;21.23;3.80;;;;;;;13.31;88.97;102839.91;10322297;28;20051;-83
2023/05/30 06:26:56;;;;;;;9.43;4.32;;;;;;;13.28;87.60;102845.69;10325669;28;20022;-80
2023/05/30 06:31:57;;;;;;;13.23;4.32;;;;;;;13.43;87.73;102842.13;10317997;28;20046;-81
2023/05/30 06:36:57;;;;;;;5.65;4.35;;;;;;;13.49;87.37;102835.13;10313547;28;20035;-80
2023/05/30 06:41:57;;;;;;;4.82;4.10;;;;;;;13.69;87.07;102855.56;10279301;28;20119;-81
2023/05/30 06:46:58;;;;;;;6.03;4.72;;;;;;;13.91;84.13;102864.03;10309496;28;20058;-80
2023/05/30 06:51:58;;;;;;;7.82;4.50;;;;;;;13.83;85.16;102861.34;10288217;28;20039;-80
2023/05/30 06:57:05;;;;;;;9.65;5.35;;;;;;;14.06;83.75;102867.78;10292525;28;20371;-80
2023/05/30 07:02:05;;;;;;;;;;;;;;;14.41;83.00;102854.75;10305169;28;20038;-83
2023/05/30 07:07:06;;;;;;;11.35;3.80;;;;;;;14.18;81.11;102862.84;10316738;28;20369;-81
2023/05/30 07:12:07;;;;;;;6.00;4.38;;;;;;;14.54;82.63;102859.69;10302067;28;20044;-79
2023/05/30 07:17:07;;;;;;;18.33;4.55;;;;;;;14.80;80.59;102865.72;10313951;28;20080;-82
2023/05/30 07:22:08;;;;;;;13.63;5.22;;;;;;;14.62;78.08;102868.69;10293721;28;20026;-80
2023/05/30 07:27:08;;;;;;;4.13;3.72;;;;;;;14.74;78.13;102854.66;10310347;28;20094;-80
2023/05/30 07:32:12;;;;;;;8.60;4.07;;;;;;;15.26;77.42;102846.69;10299494;28;20043;-80
2023/05/30 07:37:13;;;;;;;11.55;3.97;;;;;;;15.94;75.59;102844.97;10321847;28;20110;-79
2023/05/30 07:42:13;;;;;;;4.72;3.63;;;;;;;17.14;69.75;102843.91;10323971;28;20069;-79
2023/05/30 07:47:14;;;;;;;6.90;3.53;;;;;;;16.45;67.98;102847.00;10340018;28;20031;-81
2023/05/30 07:52:15;;;;;;;10.55;3.92;;;;;;;16.31;68.65;102854.16;10314013;28;20047;-83
2023/05/30 07:57:15;;;;;;;10.63;4.88;;;;;;;16.70;65.83;102861.22;10297818;28;20037;-82
2023/05/30 08:02:16;;;;;;;9.98;4.28;;;;;;;18.30;61.87;102859.03;10309063;28;20035;-82
2023/05/30 08:07:16;;;;;;;10.02;4.35;;;;;;;19.78;56.47;102847.53;10289419;28;20111;-81
2023/05/30 08:12:18;;;;;;;9.77;4.05;;;;;;;20.00;53.03;102838.00;10311802;28;20053;-84
2023/05/30 08:17:21;;;;;;;6.30;3.40;;;;;;;18.85;54.00;102836.34;10314395;28;20085;-81
2023/05/30 08:22:22;;;;;;;8.73;3.72;;;;;;;18.28;58.88;102827.38;10294297;28;20470;-82
2023/05/30 08:27:23;;;;;;;14.25;4.45;;;;;;;19.82;57.03;102826.81;10289277;28;20042;-81
2023/05/30 08:32:23;;;;;;;6.50;4.78;;;;;;;20.56;55.19;102822.88;10284669;28;20094;-81
2023/05/30 08:37:24;;;;;;;10.60;4.30;;;;;;;20.04;56.38;102822.78;10308960;28;20038;-80
2023/05/30 08:42:25;;;;;;;9.30;4.40;;;;;;;20.74;57.14;102822.16;10288577;28;20038;-81
2023/05/30 08:47:25;;;;;;;10.27;3.50;;;;;;;19.73;57.02;102824.28;10308394;28;20042;-82
2023/05/30 08:52:26;;;;;;;15.07;4.70;;;;;;;20.06;51.77;102817.88;10309705;28;20031;-82
2023/05/30 08:57:31;;;;;;;5.90;4.32;;;;;;;20.17;53.79;102810.91;10272460;28;20074;-82
2023/05/30 09:02:33;;;;;;;12.05;3.42;;;;;;;21.55;54.85;102811.28;10272039;28;20080;-83
2023/05/30 09:07:33;;;;;;;6.07;3.58;;;;;;;21.97;55.01;102794.97;10273125;28;20031;-81
2023/05/30 09:12:34;;;;;;;10.43;4.03;;;;;;;22.35;52.45;102787.59;10271184;28;20410;-82
2023/05/30 09:17:35;;;;;;;7.05;3.60;;;;;;;22.19;50.36;102791.81;10285845;28;20043;-81
2023/05/30 09:22:35;;;;;;;9.10;3.78;;;;;;;22.62;46.60;102791.72;10300093;28;20075;-82
2023/05/30 09:27:37;;;;;;;5.13;4.63;;;;;;;22.80;48.33;102793.59;10264110;28;20118;-82
2023/05/30 09:32:38;;;;;;;5.32;4.15;;;;;;;23.24;47.60;102783.22;10309962;28;20035;-79
2023/05/30 09:37:41;;;;;;;7.35;4.32;;;;;;;22.98;42.95;102774.25;10267406;28;20031;-81
2023/05/30 09:42:42;;;;;;;9.93;5.78;;;;;;;23.12;45.92;102782.34;10295797;28;20054;-83
2023/05/30 09:47:46;;;;;;;4.65;3.80;;;;;;;23.57;45.73;102784.56;10293784;28;20086;-82
2023/05/30 09:52:51;;;;;;;7.00;4.45;;;;;;;22.62;43.99;102783.44;10277251;28;20489;-82
2023/05/30 09:57:53;;;;;;;10.85;5.18;;;;;;;22.44;46.15;102776.03;10278026;28;20061;-82
2023/05/30 10:02:55;;;;;;;11.90;4.55;;;;;;;22.62;44.09;102779.81;10294909;28;20093;-81
2023/05/30 10:07:57;;;;;;;7.60;4.03;;;;;;;22.63;44.98;102776.84;10279666;28;20370;-81
2023/05/30 10:12:57;;;;;;;8.73;4.53;;;;;;;22.86;46.22;102783.53;10294448;28;20508;-83
2023/05/30 10:18:12;;;;;;;13.50;4.32;;;;;;;23.54;42.17;102772.06;10293741;28;20051;-83
2023/05/30 10:23:13;;;;;;;8.32;3.40;;;;;;;23.90;44.42;102762.72;10277311;28;20038;-82
2023/05/30 10:28:18;;;;;;;15.75;4.78;;;;;;;23.80;43.65;102770.81;10260360;28;20031;-82
2023/05/30 10:33:18;;;;;;;9.40;3.83;;;;;;;24.03;44.48;102782.94;10294154;28;20482;-82
2023/05/30 10:38:18;;;;;;;6.63;3.25;;;;;;;23.49;43.23;102773.88;10266473;28;20126;-84
2023/05/30 10:43:47;;;;;;;2.70;2.50;;;;;;;22.35;45.86;102787.59;10283777;28;20081;-83
2023/05/30 10:48:58;;;;;;;9.10;3.50;;;;;;;21.25;49.06;102778.00;10284061;28;20065;-80
2023/05/30 10:54:00;;;;;;;3.05;2.33;;;;;;;21.70;49.89;102783.38;10284042;28;20070;-81
2023/05/30 10:59:02;;;;;;;3.58;3.30;;;;;;;20.87;51.07;102786.31;10275517;28;20042;-78
2023/05/30 11:04:05;;;;;;;5.68;3.90;;;;;;;20.40;52.68;102780.97;10324267;28;20154;-79
2023/05/30 11:09:09;;;;;;;4.75;2.50;;;;;;;20.33;52.32;102766.41;10338822;28;20031;-80
2023/05/30 11:14:10;;;;;;;9.48;3.05;;;;;;;19.72;53.21;102770.34;10298458;28;20094;-83
2023/05/30 11:19:11;;;;;;;6.78;3.20;;;;;;;19.70;54.28;102768.88;10268569;28;20108;-83
2023/05/30 11:24:16;;;;;;;4.97;3.80;;;;;;;19.62;54.70;102769.91;10299963;28;20027;-81
2023/05/30 11:29:32;;;;;;;5.17;3.73;;;;;;;19.31;55.79;102780.69;10300676;28;20386;-83
2023/05/30 11:34:33;;;;;;;3.35;3.05;;;;;;;18.97;57.99;102766.06;10302075;28;20030;-81
2023/05/30 11:39:34;;;;;;;6.63;3.67;;;;;;;18.75;59.47;102774.44;10301141;28;20030;-83
2023/05/30 11:44:34;;;;;;;3.50;3.20;;;;;;;18.06;61.85;102769.03;10304247;28;20533;-81
2023/05/30 11:49:35;;;;;;;7.10;3.45;;;;;;;18.35;61.45;102760.56;10302190;28;20471;-82
2023/05/30 11:54:35;;;;;;;6.70;3.17;;;;;;;18.43;62.76;102762.25;10286370;28;20042;-82
2023/05/30 11:59:36;;;;;;;6.55;3.80;;;;;;;17.95;64.84;102764.13;10322854;28;20122;-82
2023/05/30 12:04:40;;;;;;;2.40;2.20;;;;;;;17.66;67.15;102766.00;10298875;28;20040;-84
2023/05/30 12:09:41;;;;;;;3.03;2.78;;;;;;;17.39;70.67;102770.44;10300584;28;20126;-82
2023/05/30 12:14:41;;;;;;;3.83;3.35;;;;;;;17.59;69.83;102770.59;10284078;28;20397;-82
2023/05/30 12:19:45;;;;;;;3.88;2.78;;;;;;;17.49;68.87;102759.13;10301279;28;20112;-83
2023/05/30 12:24:45;;;;;;;3.25;2.95;;;;;;;17.43;69.25;102758.88;10298843;28;20453;-82
2023/05/30 12:29:45;;;;;;;2.50;2.30;;;;;;;17.44;70.05;102763.28;10298312;28;20098;-81
2023/05/30 12:34:46;;;;;;;4.03;2.38;;;;;;;17.54;68.03;102753.88;10286452;28;20046;-82
2023/05/30 12:39:53;;;;;;;3.30;2.97;;;;;;;17.43;67.96;102744.31;10307306;28;20077;-84
2023/05/30 12:44:54;;;;;;;5.05;2.38;;;;;;;17.67;68.58;102745.75;10294340;28;20030;-83
2023/05/30 12:49:55;;;;;;;2.33;2.13;;;;;;;17.65;68.47;102753.34;10311695;28;20035;-83
2023/05/30 12:54:56;;;;;;;3.25;2.20;;;;;;;17.94;67.63;102746.00;10286727;28;20390;-82
2023/05/30 12:59:56;;;;;;;1.67;1.42;;;;;;;17.60;69.94;102753.94;10301936;28;20030;-82
2023/05/30 13:04:56;;;;;;;4.30;2.22;;;;;;;17.71;71.04;102738.84;10289715;28;20127;-84
2023/05/30 13:09:57;;;;;;;3.47;1.58;;;;;;;17.82;69.70;102730.09;10310317;28;20031;-83
2023/05/30 13:14:58;;;;;;;2.85;1.70;;;;;;;17.81;70.24;102741.28;10299786;28;20070;-82
2023/05/30 13:19:59;;;;;;;8.38;1.92;;;;;;;17.57;71.90;102748.00;10317502;28;20031;-80
2023/05/30 13:25:00;;;;;;;2.17;1.80;;;;;;;17.78;71.56;102750.72;10300789;28;20069;-82
2023/05/30 13:30:00;;;;;;;2.90;1.20;;;;;;;17.86;70.98;102736.84;10302406;28;20039;-82
2023/05/30 13:35:00;;;;;;;4.20;1.48;;;;;;;18.13;70.27;102728.81;10322697;28;20042;-80
2023/05/30 13:40:01;;;;;;;1.63;1.52;;;;;;;18.38;68.81;102731.88;10325630;28;20037;-82
2023/05/30 13:45:01;;;;;;;1.00;1.00;;;;;;;18.30;69.17;102732.88;10321226;28;20038;-82
2023/05/30 13:50:04;;;;;;;4.32;1.38;;;;;;;18.31;69.16;102737.34;10303587;28;20031;-83
2023/05/30 13:55:05;;;;;;;2.88;2.00;;;;;;;18.36;69.92;102728.47;10308478;28;20150;-83
2023/05/30 14:00:06;;;;;;;1.95;1.25;;;;;;;18.63;69.13;102729.41;10307220;28;20072;-81
2023/05/30 14:05:07;;;;;;;7.10;1.98;;;;;;;18.91;68.29;102720.22;10308880;28;20042;-82
2023/05/30 14:10:08;;;;;;;1.58;1.42;;;;;;;18.83;67.87;102720.44;10308667;28;20034;-81
2023/05/30 14:15:09;;;;;;;5.05;2.00;;;;;;;18.31;68.78;102720.00;10322109;28;20062;-79
2023/05/30 14:20:11;;;;;;;1.55;1.45;;;;;;;17.92;70.52;102706.97;10326288;28;20043;-81
2023/05/30 14:25:12;;;;;;;2.75;2.10;;;;;;;17.52;72.40;102703.94;10329007;28;20090;-78
2023/05/30 14:30:17;;;;;;;2.20;1.95;;;;;;;17.65;71.02;102712.25;10317772;28;20130;-83
2023/05/30 14:35:17;;;;;;;8.93;2.10;;;;;;;17.36;72.13;102716.88;10310302;28;20121;-82
2023/05/30 14:40:18;;;;;;;1.80;1.60;;;;;;;17.50;71.64;102711.50;10309345;28;20050;-84
2023/05/30 14:45:18;;;;;;;2.55;1.73;;;;;;;17.78;70.63;102704.16;10290782;28;20035;-83
2023/05/30 14:50:19;;;;;;;2.15;1.95;;;;;;;17.88;69.87;102681.84;10306362;28;20067;-84
2023/05/30 14:55:19;;;;;;;2.22;2.03;;;;;;;17.77;69.19;102691.50;10305920;28;20066;-82
2023/05/30 15:00:20;;;;;;;1.30;1.20;;;;;;;17.66;69.28;102684.66;10304891;28;20066;-82
2023/05/30 15:05:20;;;;;;;2.30;1.58;;;;;;;17.51;68.87;102677.59;10284241;28;20053;-83
2023/05/30 15:10:20;;;;;;;2.67;1.83;;;;;;;17.60;68.61;102679.97;10290383;28;20376;-83
2023/05/30 15:15:21;;;;;;;10.32;2.53;;;;;;;17.28;71.24;102681.44;10287061;28;20204;-83
2023/05/30 15:20:22;;;;;;;3.42;2.47;;;;;;;17.10;75.23;102679.19;10304060;28;20039;-83
2023/05/30 15:25:22;;;;;;;12.68;3.33;;;;;;;16.87;76.43;102689.50;10303146;28;20497;-83
2023/05/30 15:30:22;;;;;;;4.70;2.95;;;;;;;16.96;74.74;102680.94;10303018;28;20038;-83
2023/05/30 15:35:23;;;;;;;2.17;2.03;;;;;;;16.89;74.25;102684.69;10303908;28;20030;-84
2023/05/30 15:40:23;;;;;;;1.83;1.73;;;;;;;16.66;74.08;102682.09;10286500;28;20042;-83
2023/05/30 15:45:23;;;;;;;4.63;2.30;;;;;;;16.70;73.81;102689.72;10304314;28;20043;-81
2023/05/30 15:50:24;;;;;;;2.72;2.53;;;;;;;16.67;74.74;102683.78;10301861;28;20114;-83
2023/05/30 15:55:24;;;;;;;3.05;1.67;;;;;;;16.37;76.45;102680.28;10284586;28;20041;-83
2023/05/30 16:00:25;;;;;;;2.92;2.53;;;;;;;16.40;76.51;102677.16;10285386;28;20051;-84
2023/05/30 16:05:25;;;;;;;1.70;1.60;;;;;;;16.67;75.33;102673.69;10284505;28;20038;-83
2023/05/30 16:10:26;;;;;;;1.50;1.40;;;;;;;16.61;73.87;102662.69;10300764;28;20431;-81
2023/05/30 16:15:26;;;;;;;1.90;1.80;;;;;;;16.62;73.42;102654.28;10282993;28;20163;-82
2023/05/30 16:20:26;;;;;;;16.17;3.03;;;;;;;16.63;73.36;102661.44;10282970;28;20031;-84
2023/05/30 16:25:27;;;;;;;10.75;1.92;;;;;;;16.62;74.04;102659.75;10283724;28;20352;-83
2023/05/30 16:30:27;;;;;;;4.70;1.75;;;;;;;16.54;73.91;102661.78;10286683;28;20035;-86
2023/05/30 16:35:28;;;;;;;9.82;2.42;;;;;;;16.61;73.52;102652.59;10284409;28;20038;-84
2023/05/30 16:40:28;;;;;;;2.08;1.45;;;;;;;16.63;77.12;102645.03;10289817;28;20428;-82
2023/05/30 16:45:29;;;;;;;8.13;1.48;;;;;;;16.55;76.85;102653.38;10311391;28;20058;-81
2023/05/30 16:50:29;;;;;;;3.88;1.83;;;;;;;16.74;74.88;102652.72;10323323;28;20043;-83
2023/05/30 16:55:30;;;;;;;2.70;2.25;;;;;;;16.77;74.82;102656.97;10310052;28;20076;-85
2023/05/30 17:00:30;;;;;;;2.28;2.13;;;;;;;16.71;74.07;102658.56;10313182;28;20034;-83
2023/05/30 17:05:30;;;;;;;2.00;1.90;;;;;;;16.66;73.52;102644.66;10297510;28;20038;-82
2023/05/30 17:10:31;;;;;;;2.65;2.30;;;;;;;16.70;72.92;102640.47;10302308;28;20038;-81
2023/05/30 17:15:31;;;;;;;3.58;2.28;;;;;;;16.52;73.22;102649.13;10302627;28;20066;-84
2023/05/30 17:20:32;;;;;;;2.58;2.38;;;;;;;16.17;76.03;102658.19;10316952;28;20039;-82
2023/05/30 17:25:32;;;;;;;2.60;2.40;;;;;;;15.87;76.60;102652.78;10297488;28;20066;-82
2023/05/30 17:30:33;;;;;;;7.38;2.25;;;;;;;15.79;75.34;102658.31;10298759;28;20110;-81
2023/05/30 17:35:33;;;;;;;2.45;2.13;;;;;;;15.94;75.41;102650.97;10337571;28;20030;-80
2023/05/30 17:40:34;;;;;;;3.30;1.98;;;;;;;15.89;76.30;102660.78;10317284;28;20023;-79
2023/05/30 17:45:34;;;;;;;1.73;1.63;;;;;;;15.57;78.95;102655.50;10326353;28;20038;-80
2023/05/30 17:50:34;;;;;;;2.38;2.17;;;;;;;15.55;78.52;102656.72;10310831;28;20560;-81
2023/05/30 17:55:35;;;;;;;2.53;2.00;;;;;;;15.67;77.40;102654.41;10324321;28;20031;-81
2023/05/30 18:00:36;;;;;;;1.65;1.55;;;;;;;15.48;79.21;102659.34;10302964;28;20055;-83
2023/05/30 18:05:37;;;;;;;10.32;2.25;;;;;;;15.45;79.24;102650.69;10325294;28;20347;-81
2023/05/30 18:10:37;;;;;;;2.22;1.70;;;;;;;15.37;80.35;102648.88;10321039;28;20061;-81
2023/05/30 18:15:37;;;;;;;1.77;1.38;;;;;;;15.31;81.47;102655.06;10322130;28;20063;-84
2023/05/30 18:20:38;;;;;;;2.03;1.85;;;;;;;15.31;80.35;102663.25;10322558;28;20062;-81
2023/05/30 18:25:38;;;;;;;2.78;2.08;;;;;;;15.22;83.82;102656.19;10305850;28;20047;-80
2023/05/30 18:30:39;;;;;;;2.05;1.80;;;;;;;15.07;84.45;102665.19;10322267;28;20045;-81
2023/05/30 18:35:39;;;;;;;2.25;1.98;;;;;;;15.16;82.52;102663.25;10326980;28;20078;-81
2023/05/30 18:40:40;;;;;;;1.92;1.80;;;;;;;15.20;82.64;102663.72;10325092;28;20179;-81
2023/05/30 18:45:40;;;;;;;2.88;2.30;;;;;;;14.95;87.57;102653.03;10302714;28;20039;-81
2023/05/30 18:50:41;;;;;;;3.55;2.65;;;;;;;14.84;89.00;102661.66;10322471;28;20030;-83
2023/05/30 18:55:41;;;;;;;4.88;2.25;;;;;;;14.87;86.63;102661.31;10317420;28;20089;-79
2023/05/30 19:00:41;;;;;;;2.03;1.92;;;;;;;14.85;85.33;102657.91;10299769;28;20094;-83
2023/05/30 19:05:42;;;;;;;2.42;1.77;;;;;;;14.69;89.64;102655.28;10289630;28;20342;-82
2023/05/30 19:10:42;;;;;;;1.63;1.52;;;;;;;14.41;91.46;102663.97;10322694;28;20121;-80
2023/05/30 19:15:43;;;;;;;1.95;1.67;;;;;;;14.29;92.83;102662.66;10308897;28;20497;-81
2023/05/30 19:20:43;;;;;;;3.85;2.38;;;;;;;14.24;90.86;102665.09;10301625;28;20430;-81
2023/05/30 19:25:44;;;;;;;4.60;1.90;;;;;;;14.21;91.11;102654.56;10281820;28;20162;-81
2023/05/30 19:30:44;;;;;;;2.40;1.85;;;;;;;14.06;91.02;102657.19;10308180;28;20026;-80
2023/05/30 19:35:45;;;;;;;3.22;2.53;;;;;;;13.80;93.84;102652.00;10291485;28;20062;-82
2023/05/30 19:40:45;;;;;;;2.80;2.40;;;;;;;13.72;92.74;102651.03;10293612;28;20035;-81
2023/05/30 19:45:45;;;;;;;2.22;2.03;;;;;;;13.53;94.34;102656.88;10306333;28;20046;-81
2023/05/30 19:50:46;;;;;;;2.70;2.50;;;;;;;13.29;96.25;102643.31;10293349;28;20030;-83
2023/05/30 19:55:46;;;;;;;4.63;2.05;;;;;;;13.17;94.85;102654.50;10313117;28;20070;-84
2023/05/30 20:00:47;;;;;;;4.20;2.60;;;;;;;13.04;95.70;102654.19;10325739;28;20043;-78
2023/05/30 20:05:47;;;;;;;1.95;1.85;;;;;;;12.90;96.40;102653.00;10307019;28;20430;-84
2023/05/30 20:10:47;;;;;;;6.70;2.60;;;;;;;12.79;100.00;102656.03;10288988;28;20039;-86
2023/05/30 20:15:49;;;;;;;4.90;2.17;;;;;;;12.76;100.00;102665.41;10310150;28;20102;-84
2023/05/30 20:20:50;;;;;;;2.60;2.38;;;;;;;12.67;100.00;102652.84;10320930;28;20065;-76
2023/05/30 20:25:50;;;;;;;3.25;2.97;;;;;;;12.54;100.00;102657.91;10305909;28;20053;-79
2023/05/30 20:30:52;;;;;;;3.08;2.65;;;;;;;12.49;100.00;102671.13;10303802;28;20450;-79
2023/05/30 20:35:52;;;;;;;3.40;2.78;;;;;;;12.44;100.00;102678.94;10293428;28;20131;-79
2023/05/30 20:40:52;;;;;;;3.83;2.38;;;;;;;12.63;100.00;102672.34;10295912;28;20038;-80
2023/05/30 20:45:53;;;;;;;3.10;2.20;;;;;;;12.79;100.00;102681.38;10281700;28;20045;-80
2023/05/30 20:50:53;;;;;;;11.35;3.42;;;;;;;12.98;100.00;102665.75;10318574;28;20030;-78
2023/05/30 20:55:54;;;;;;;2.33;2.22;;;;;;;13.10;100.00;102667.09;10312871;28;20019;-79
2023/05/30 21:00:54;;;;;;;3.45;3.15;;;;;;;13.09;100.00;102650.97;10316953;28;20069;-80
2023/05/30 21:05:55;;;;;;;2.83;2.22;;;;;;;13.10;100.00;102664.38;10296487;28;20046;-79
2023/05/30 21:10:55;;;;;;;4.95;3.50;;;;;;;13.02;100.00;102650.81;10294963;28;20031;-78
2023/05/30 21:15:55;;;;;;;3.03;2.83;;;;;;;12.98;100.00;102654.84;10294348;28;20097;-79
2023/05/30 21:20:56;;;;;;;9.75;2.85;;;;;;;12.93;100.00;102655.38;10279020;28;20378;-80
2023/05/30 21:25:57;;;;;;;3.53;3.22;;;;;;;12.93;100.00;102651.81;10278997;28;20069;-81
2023/05/30 21:30:57;;;;;;;4.82;3.28;;;;;;;12.92;100.00;102663.69;10277755;28;20019;-80
2023/05/30 21:35:57;;;;;;;5.45;3.83;;;;;;;12.90;100.00;102653.00;10295805;28;20038;-81
2023/05/30 21:40:58;;;;;;;7.28;4.78;;;;;;;12.89;100.00;102655.88;10310306;28;20042;-79
2023/05/30 21:45:58;;;;;;;5.75;3.70;;;;;;;12.86;100.00;102661.66;10316343;28;20026;-79
2023/05/30 21:50:59;;;;;;;11.50;3.28;;;;;;;12.85;100.00;102659.97;10305553;28;20046;-81
2023/05/30 21:56:00;;;;;;;5.28;3.63;;;;;;;12.82;100.00;102666.59;10300004;28;20546;-81
2023/05/30 22:01:00;;;;;;;12.50;5.20;;;;;;;12.72;100.00;102657.75;10285203;28;20034;-79
2023/05/30 22:06:01;;;;;;;4.43;3.70;;;;;;;12.67;100.00;102654.69;10286965;28;20034;-80
2023/05/30 22:11:01;;;;;;;12.77;2.72;;;;;;;12.56;100.00;102651.28;10302823;28;20042;-81
2023/05/30 22:16:02;;;;;;;3.45;3.22;;;;;;;12.43;100.00;102650.91;10299073;28;20038;-81
2023/05/30 22:21:02;;;;;;;4.95;3.95;;;;;;;12.38;100.00;102657.84;10299186;28;20066;-80
2023/05/30 22:26:02;;;;;;;3.35;3.05;;;;;;;12.27;100.00;102654.44;10296478;28;20046;-80
2023/05/30 22:31:03;;;;;;;6.10;3.92;;;;;;;12.20;100.00;102663.44;10284203;28;20474;-81
2023/05/30 22:36:04;;;;;;;6.13;4.13;;;;;;;12.10;100.00;102669.00;10304752;28;20026;-81
2023/05/30 22:41:05;;;;;;;3.75;3.45;;;;;;;12.00;100.00;102663.72;10304523;28;20043;-81
2023/05/30 22:46:05;;;;;;;4.95;4.50;;;;;;;11.90;100.00;102679.28;10302309;28;20045;-82
2023/05/30 22:51:05;;;;;;;4.82;3.53;;;;;;;11.81;100.00;102674.78;10285770;28;20049;-79
2023/05/30 22:56:06;;;;;;;6.50;4.10;;;;;;;11.69;100.00;102667.94;10286832;28;20089;-80
2023/05/30 23:01:06;;;;;;;6.28;3.22;;;;;;;11.62;100.00;102670.44;10284941;28;20061;-81